Pays
Station

 

Conditions  météo  pour  Marion Regional  -  Etats-Unis    Etats-Unis

  
29 °C
    
 
 

METAR pour Marion Regional :

KMWA 161945Z 21008KT 20SM SCT025 BKN033 BKN047 29/23 A2998

 

Voici le bulletin pour Marion Regional - Etats-Unis.
 
Le bulletin a été fait il y a 19 minutes, à 19:45 UTC .
Le vent soufflait à la vitesse de 4.1 mètres par seconde de Sud/Sud-ouest (210°).
 
La température était de 29 °C, avec un point de rosée à 23 °C.
La température ressentie était de 33 °C.
 
La pression atmosphérique était de 1015 hPa.
L'humidité relative était de 70.1%.
 
Il y avait 3 à 4/8ème de nébulosité à une hauteur de 762 mètres, 5 à 7/8ème de nébulosité à une hauteur de 1006 mètres et 5 à 7/8ème de nébulosité à une hauteur de 1433 mètres.
 
La visibilité globale était de 32.2 kilomètres.
 

 
 
 

Pays :   A   B   C   D   E   F   G   H   I   J   K   L   M   N   O   P   Q   R   S   T   U   V   W   Y   Z

 

Partenaires :  Info Météo avec Met'info
Météo Marine avec MeteoMarine.net
Infos Site  |  Infos Légales  |  Crédits  |  Confidentialité
Contactez-nous  |  Ajouter aux favoris
© 2013-2018 METAR - Tous droits réservés